NY38 weather

Mc Bride's Airport
Gorham, New York, United States

Public forecast

Using degrees Fahrenheit for public forecast. Weather courtesy of forecast.io.

Closest aviation weather report (METAR) to Mc Bride's Airport

Closest report is Penn Yan Airport, 13.3 nm (24.7 km) SSE. Retrieved 2019/10/21 00:53 UTC (17 minutes ago):

KPEO 210053Z AUTO 11006KT 9SM CLR 08/06 A2997 RMK AO2 SLP153 T00830061

Closest aviation forecast (TAF) to Mc Bride's Airport

Closest forecast is Greater Rochester International Airport, 28.9 nm (53.5 km) WNW. Retrieved 2019-10-21 00:22 UTC (48 minutes ago):

TAF KROC 202320Z 2100/2124 VRB03KT P6SM FEW250 FM211400 12005KT P6SM SCT250 FM212300 11008KT P6SM BKN200